sensor_id;sensor_type;location;lat;lon;timestamp;temperature;humidity
2639;DHT22;1329;51.384;7.122;2023-07-20T00:00:26;18.80;47.10
2639;DHT22;1329;51.384;7.122;2023-07-20T00:03:10;18.80;47.00
2639;DHT22;1329;51.384;7.122;2023-07-20T00:05:42;18.80;49.00
2639;DHT22;1329;51.384;7.122;2023-07-20T00:08:09;18.80;48.40
2639;DHT22;1329;51.384;7.122;2023-07-20T00:10:37;18.80;49.00
2639;DHT22;1329;51.384;7.122;2023-07-20T00:13:04;18.80;50.00
2639;DHT22;1329;51.384;7.122;2023-07-20T00:15:31;18.80;50.00
2639;DHT22;1329;51.384;7.122;2023-07-20T00:17:58;18.80;50.30
2639;DHT22;1329;51.384;7.122;2023-07-20T00:20:25;18.80;50.60
2639;DHT22;1329;51.384;7.122;2023-07-20T00:22:52;18.90;50.00
2639;DHT22;1329;51.384;7.122;2023-07-20T00:25:20;18.90;49.00
2639;DHT22;1329;51.384;7.122;2023-07-20T00:27:48;18.90;48.90
2639;DHT22;1329;51.384;7.122;2023-07-20T00:30:16;18.90;49.80
2639;DHT22;1329;51.384;7.122;2023-07-20T00:32:44;18.90;50.00
2639;DHT22;1329;51.384;7.122;2023-07-20T00:35:11;18.80;50.50
2639;DHT22;1329;51.384;7.122;2023-07-20T00:37:38;18.80;49.10
2639;DHT22;1329;51.384;7.122;2023-07-20T00:40:06;18.80;48.00
2639;DHT22;1329;51.384;7.122;2023-07-20T00:42:34;18.80;46.90
2639;DHT22;1329;51.384;7.122;2023-07-20T00:45:03;18.80;45.20
2639;DHT22;1329;51.384;7.122;2023-07-20T00:47:31;18.70;44.10
2639;DHT22;1329;51.384;7.122;2023-07-20T00:49:58;18.70;43.30
2639;DHT22;1329;51.384;7.122;2023-07-20T00:52:25;18.70;42.30
2639;DHT22;1329;51.384;7.122;2023-07-20T00:54:54;18.60;42.10
2639;DHT22;1329;51.384;7.122;2023-07-20T00:57:23;18.60;42.00
2639;DHT22;1329;51.384;7.122;2023-07-20T00:59:51;18.60;42.10
2639;DHT22;1329;51.384;7.122;2023-07-20T01:02:19;18.60;41.50
2639;DHT22;1329;51.384;7.122;2023-07-20T01:04:46;18.50;41.40
2639;DHT22;1329;51.384;7.122;2023-07-20T01:07:19;18.50;40.70
2639;DHT22;1329;51.384;7.122;2023-07-20T01:09:55;18.50;40.40
2639;DHT22;1329;51.384;7.122;2023-07-20T01:12:31;18.40;42.20
2639;DHT22;1329;51.384;7.122;2023-07-20T01:15:06;18.50;45.20
2639;DHT22;1329;51.384;7.122;2023-07-20T01:17:35;18.40;46.10
2639;DHT22;1329;51.384;7.122;2023-07-20T01:20:02;18.40;46.00
2639;DHT22;1329;51.384;7.122;2023-07-20T01:22:47;18.40;47.30
2639;DHT22;1329;51.384;7.122;2023-07-20T01:25:40;18.40;47.90
2639;DHT22;1329;51.384;7.122;2023-07-20T01:28:43;18.50;50.20
2639;DHT22;1329;51.384;7.122;2023-07-20T01:31:33;18.50;49.70
2639;DHT22;1329;51.384;7.122;2023-07-20T01:34:01;18.50;48.70
2639;DHT22;1329;51.384;7.122;2023-07-20T01:36:32;18.50;48.20
2639;DHT22;1329;51.384;7.122;2023-07-20T01:39:00;18.50;47.50
2639;DHT22;1329;51.384;7.122;2023-07-20T01:41:30;18.50;47.60
2639;DHT22;1329;51.384;7.122;2023-07-20T01:43:57;18.40;47.60
2639;DHT22;1329;51.384;7.122;2023-07-20T01:46:25;18.40;47.10
2639;DHT22;1329;51.384;7.122;2023-07-20T01:48:54;18.40;47.00
2639;DHT22;1329;51.384;7.122;2023-07-20T01:51:21;18.40;46.40
2639;DHT22;1329;51.384;7.122;2023-07-20T01:53:48;18.40;47.10
2639;DHT22;1329;51.384;7.122;2023-07-20T01:56:14;18.40;48.40
2639;DHT22;1329;51.384;7.122;2023-07-20T01:58:42;18.40;48.80
2639;DHT22;1329;51.384;7.122;2023-07-20T02:01:08;18.40;49.20
2639;DHT22;1329;51.384;7.122;2023-07-20T02:03:35;18.40;49.50
2639;DHT22;1329;51.384;7.122;2023-07-20T02:06:03;18.40;51.30
2639;DHT22;1329;51.384;7.122;2023-07-20T02:08:30;18.40;54.20
2639;DHT22;1329;51.384;7.122;2023-07-20T02:10:57;18.40;56.50
2639;DHT22;1329;51.384;7.122;2023-07-20T02:13:24;18.40;58.60
2639;DHT22;1329;51.384;7.122;2023-07-20T02:15:51;18.40;60.90
2639;DHT22;1329;51.384;7.122;2023-07-20T02:18:18;18.40;60.80
2639;DHT22;1329;51.384;7.122;2023-07-20T02:20:45;18.40;60.50
2639;DHT22;1329;51.384;7.122;2023-07-20T02:23:13;18.40;60.20
2639;DHT22;1329;51.384;7.122;2023-07-20T02:25:40;18.40;61.40
2639;DHT22;1329;51.384;7.122;2023-07-20T02:28:07;18.40;63.80
2639;DHT22;1329;51.384;7.122;2023-07-20T02:30:37;18.40;65.80
2639;DHT22;1329;51.384;7.122;2023-07-20T02:33:04;18.40;68.70
2639;DHT22;1329;51.384;7.122;2023-07-20T02:35:32;18.40;74.90
2639;DHT22;1329;51.384;7.122;2023-07-20T02:37:58;18.30;75.30
2639;DHT22;1329;51.384;7.122;2023-07-20T02:40:27;18.30;79.10
2639;DHT22;1329;51.384;7.122;2023-07-20T02:42:54;18.30;82.30
2639;DHT22;1329;51.384;7.122;2023-07-20T02:45:21;18.30;80.90
2639;DHT22;1329;51.384;7.122;2023-07-20T02:47:47;18.30;86.30
2639;DHT22;1329;51.384;7.122;2023-07-20T02:50:14;18.30;88.30
2639;DHT22;1329;51.384;7.122;2023-07-20T02:52:41;18.30;93.60
2639;DHT22;1329;51.384;7.122;2023-07-20T02:55:09;18.30;97.60
2639;DHT22;1329;51.384;7.122;2023-07-20T02:57:37;18.30;99.90
2639;DHT22;1329;51.384;7.122;2023-07-20T03:00:05;18.30;99.90
2639;DHT22;1329;51.384;7.122;2023-07-20T03:02:33;18.30;99.90
2639;DHT22;1329;51.384;7.122;2023-07-20T03:05:00;18.30;99.90
2639;DHT22;1329;51.384;7.122;2023-07-20T03:07:31;18.30;99.90
2639;DHT22;1329;51.384;7.122;2023-07-20T03:09:58;18.40;99.90
2639;DHT22;1329;51.384;7.122;2023-07-20T03:12:25;18.40;99.90
2639;DHT22;1329;51.384;7.122;2023-07-20T03:14:53;18.30;99.90
2639;DHT22;1329;51.384;7.122;2023-07-20T03:17:22;18.30;99.90
2639;DHT22;1329;51.384;7.122;2023-07-20T03:19:49;18.30;99.90
2639;DHT22;1329;51.384;7.122;2023-07-20T03:22:16;18.30;99.90
2639;DHT22;1329;51.384;7.122;2023-07-20T03:24:43;18.30;99.90
2639;DHT22;1329;51.384;7.122;2023-07-20T03:27:09;18.30;99.90
2639;DHT22;1329;51.384;7.122;2023-07-20T03:29:36;18.20;99.90
2639;DHT22;1329;51.384;7.122;2023-07-20T03:32:05;18.20;99.90
2639;DHT22;1329;51.384;7.122;2023-07-20T03:34:32;18.20;99.90
2639;DHT22;1329;51.384;7.122;2023-07-20T03:36:59;18.20;99.90
2639;DHT22;1329;51.384;7.122;2023-07-20T03:39:26;18.20;99.90
2639;DHT22;1329;51.384;7.122;2023-07-20T03:41:53;18.20;99.90
2639;DHT22;1329;51.384;7.122;2023-07-20T03:44:20;18.20;99.90
2639;DHT22;1329;51.384;7.122;2023-07-20T03:46:47;18.20;99.90
2639;DHT22;1329;51.384;7.122;2023-07-20T03:49:15;18.20;99.90
2639;DHT22;1329;51.384;7.122;2023-07-20T03:51:43;18.20;99.90
2639;DHT22;1329;51.384;7.122;2023-07-20T03:54:10;18.10;99.90
2639;DHT22;1329;51.384;7.122;2023-07-20T03:56:37;18.20;99.90
2639;DHT22;1329;51.384;7.122;2023-07-20T03:59:04;18.20;99.90
2639;DHT22;1329;51.384;7.122;2023-07-20T04:01:31;18.20;99.90
2639;DHT22;1329;51.384;7.122;2023-07-20T04:04:05;18.20;99.90
2639;DHT22;1329;51.384;7.122;2023-07-20T04:06:34;18.20;99.90
2639;DHT22;1329;51.384;7.122;2023-07-20T04:09:02;18.20;99.90
2639;DHT22;1329;51.384;7.122;2023-07-20T04:11:30;18.20;99.90
2639;DHT22;1329;51.384;7.122;2023-07-20T04:13:57;18.20;99.90
2639;DHT22;1329;51.384;7.122;2023-07-20T04:16:23;18.10;99.90
2639;DHT22;1329;51.384;7.122;2023-07-20T04:18:54;18.10;99.90
2639;DHT22;1329;51.384;7.122;2023-07-20T04:21:21;18.10;99.90
2639;DHT22;1329;51.384;7.122;2023-07-20T04:23:50;18.10;99.90
2639;DHT22;1329;51.384;7.122;2023-07-20T04:26:16;18.20;99.90
2639;DHT22;1329;51.384;7.122;2023-07-20T04:28:43;18.10;99.90
2639;DHT22;1329;51.384;7.122;2023-07-20T04:31:10;18.10;99.90
2639;DHT22;1329;51.384;7.122;2023-07-20T04:33:37;18.20;99.90
2639;DHT22;1329;51.384;7.122;2023-07-20T04:36:05;18.20;99.90
2639;DHT22;1329;51.384;7.122;2023-07-20T04:38:32;18.20;99.90
2639;DHT22;1329;51.384;7.122;2023-07-20T04:41:01;18.20;99.90
2639;DHT22;1329;51.384;7.122;2023-07-20T04:43:29;18.30;99.90
2639;DHT22;1329;51.384;7.122;2023-07-20T04:45:56;18.30;99.90
2639;DHT22;1329;51.384;7.122;2023-07-20T04:48:24;18.30;99.90
2639;DHT22;1329;51.384;7.122;2023-07-20T04:50:51;18.30;99.90
2639;DHT22;1329;51.384;7.122;2023-07-20T04:53:18;18.30;99.90
2639;DHT22;1329;51.384;7.122;2023-07-20T04:55:48;18.30;99.90
2639;DHT22;1329;51.384;7.122;2023-07-20T04:58:20;18.30;99.90
2639;DHT22;1329;51.384;7.122;2023-07-20T05:00:48;18.30;99.90
2639;DHT22;1329;51.384;7.122;2023-07-20T05:03:15;18.30;99.90
2639;DHT22;1329;51.384;7.122;2023-07-20T05:05:42;18.30;99.90
2639;DHT22;1329;51.384;7.122;2023-07-20T05:08:09;18.30;99.90
2639;DHT22;1329;51.384;7.122;2023-07-20T05:10:36;18.30;99.90
2639;DHT22;1329;51.384;7.122;2023-07-20T05:13:05;18.30;99.90
2639;DHT22;1329;51.384;7.122;2023-07-20T05:15:34;18.40;99.90
2639;DHT22;1329;51.384;7.122;2023-07-20T05:18:01;18.40;99.90
2639;DHT22;1329;51.384;7.122;2023-07-20T05:20:28;18.40;99.90
2639;DHT22;1329;51.384;7.122;2023-07-20T05:22:57;18.40;99.90
2639;DHT22;1329;51.384;7.122;2023-07-20T05:25:24;18.50;99.90
2639;DHT22;1329;51.384;7.122;2023-07-20T05:27:52;18.50;99.90
2639;DHT22;1329;51.384;7.122;2023-07-20T05:30:20;18.50;99.90
2639;DHT22;1329;51.384;7.122;2023-07-20T05:32:49;18.50;99.90
2639;DHT22;1329;51.384;7.122;2023-07-20T05:35:20;18.50;99.90
2639;DHT22;1329;51.384;7.122;2023-07-20T05:37:48;18.50;99.90
2639;DHT22;1329;51.384;7.122;2023-07-20T05:40:15;18.60;99.90
2639;DHT22;1329;51.384;7.122;2023-07-20T05:42:44;18.60;99.90
2639;DHT22;1329;51.384;7.122;2023-07-20T05:45:13;18.60;99.90
2639;DHT22;1329;51.384;7.122;2023-07-20T05:47:41;18.60;99.90
2639;DHT22;1329;51.384;7.122;2023-07-20T05:50:10;18.60;99.90
2639;DHT22;1329;51.384;7.122;2023-07-20T05:52:37;18.60;99.90
2639;DHT22;1329;51.384;7.122;2023-07-20T05:55:06;18.60;99.90
2639;DHT22;1329;51.384;7.122;2023-07-20T05:57:34;18.60;99.90
2639;DHT22;1329;51.384;7.122;2023-07-20T06:00:02;18.60;99.90
2639;DHT22;1329;51.384;7.122;2023-07-20T06:02:29;18.60;99.90
2639;DHT22;1329;51.384;7.122;2023-07-20T06:04:58;18.60;99.90
2639;DHT22;1329;51.384;7.122;2023-07-20T06:07:26;18.60;99.90
2639;DHT22;1329;51.384;7.122;2023-07-20T06:09:53;18.70;99.90
2639;DHT22;1329;51.384;7.122;2023-07-20T06:12:20;18.70;99.90
2639;DHT22;1329;51.384;7.122;2023-07-20T06:14:47;18.70;99.90
2639;DHT22;1329;51.384;7.122;2023-07-20T06:17:14;18.70;99.90
2639;DHT22;1329;51.384;7.122;2023-07-20T06:19:41;18.70;99.90
2639;DHT22;1329;51.384;7.122;2023-07-20T06:22:08;18.70;99.90
2639;DHT22;1329;51.384;7.122;2023-07-20T06:24:36;18.70;99.90
2639;DHT22;1329;51.384;7.122;2023-07-20T06:27:03;18.70;99.90
2639;DHT22;1329;51.384;7.122;2023-07-20T06:29:32;18.70;99.90
2639;DHT22;1329;51.384;7.122;2023-07-20T06:31:59;18.70;99.90
2639;DHT22;1329;51.384;7.122;2023-07-20T06:34:26;18.70;99.90
2639;DHT22;1329;51.384;7.122;2023-07-20T06:36:52;18.70;99.90
2639;DHT22;1329;51.384;7.122;2023-07-20T06:39:19;18.70;99.90
2639;DHT22;1329;51.384;7.122;2023-07-20T06:41:48;18.70;99.90
2639;DHT22;1329;51.384;7.122;2023-07-20T06:44:15;18.70;99.90
2639;DHT22;1329;51.384;7.122;2023-07-20T06:46:44;18.70;99.90
2639;DHT22;1329;51.384;7.122;2023-07-20T06:49:24;18.70;99.90
2639;DHT22;1329;51.384;7.122;2023-07-20T06:51:51;18.80;99.90
2639;DHT22;1329;51.384;7.122;2023-07-20T06:54:18;18.80;99.90
2639;DHT22;1329;51.384;7.122;2023-07-20T06:56:45;18.80;99.90
2639;DHT22;1329;51.384;7.122;2023-07-20T06:59:18;18.70;99.90
2639;DHT22;1329;51.384;7.122;2023-07-20T07:01:47;18.70;99.90
2639;DHT22;1329;51.384;7.122;2023-07-20T07:04:14;18.70;99.90
2639;DHT22;1329;51.384;7.122;2023-07-20T07:06:40;18.60;99.90
2639;DHT22;1329;51.384;7.122;2023-07-20T07:09:08;18.60;99.90
2639;DHT22;1329;51.384;7.122;2023-07-20T07:11:35;18.50;99.90
2639;DHT22;1329;51.384;7.122;2023-07-20T07:14:02;18.50;99.90
2639;DHT22;1329;51.384;7.122;2023-07-20T07:16:30;18.40;99.90
2639;DHT22;1329;51.384;7.122;2023-07-20T07:18:57;18.40;99.90
2639;DHT22;1329;51.384;7.122;2023-07-20T07:21:25;18.40;99.90
2639;DHT22;1329;51.384;7.122;2023-07-20T07:23:52;18.40;99.90
2639;DHT22;1329;51.384;7.122;2023-07-20T07:26:22;18.40;99.90
2639;DHT22;1329;51.384;7.122;2023-07-20T07:28:49;18.50;99.90
2639;DHT22;1329;51.384;7.122;2023-07-20T07:31:16;18.50;99.90
2639;DHT22;1329;51.384;7.122;2023-07-20T07:33:44;18.50;99.90
2639;DHT22;1329;51.384;7.122;2023-07-20T07:36:12;18.60;99.90
2639;DHT22;1329;51.384;7.122;2023-07-20T07:38:38;18.60;99.90
2639;DHT22;1329;51.384;7.122;2023-07-20T07:41:05;18.60;99.90
2639;DHT22;1329;51.384;7.122;2023-07-20T07:43:33;18.60;99.90
2639;DHT22;1329;51.384;7.122;2023-07-20T07:46:01;18.70;99.90
2639;DHT22;1329;51.384;7.122;2023-07-20T07:48:28;18.60;99.90
2639;DHT22;1329;51.384;7.122;2023-07-20T07:50:56;18.60;99.90
2639;DHT22;1329;51.384;7.122;2023-07-20T07:53:23;18.60;99.90
2639;DHT22;1329;51.384;7.122;2023-07-20T07:55:51;18.60;99.90
2639;DHT22;1329;51.384;7.122;2023-07-20T07:58:18;18.60;99.90
2639;DHT22;1329;51.384;7.122;2023-07-20T08:00:45;18.60;99.90
2639;DHT22;1329;51.384;7.122;2023-07-20T08:03:13;18.60;99.90
2639;DHT22;1329;51.384;7.122;2023-07-20T08:05:40;18.60;99.90
2639;DHT22;1329;51.384;7.122;2023-07-20T08:08:09;18.70;99.90
2639;DHT22;1329;51.384;7.122;2023-07-20T08:10:35;18.90;99.90
2639;DHT22;1329;51.384;7.122;2023-07-20T08:13:03;19.00;99.90
2639;DHT22;1329;51.384;7.122;2023-07-20T08:15:29;19.10;99.90
2639;DHT22;1329;51.384;7.122;2023-07-20T08:17:56;19.10;99.90
2639;DHT22;1329;51.384;7.122;2023-07-20T08:20:23;19.20;99.90
2639;DHT22;1329;51.384;7.122;2023-07-20T08:22:52;19.20;99.90
2639;DHT22;1329;51.384;7.122;2023-07-20T08:25:21;19.20;99.90
2639;DHT22;1329;51.384;7.122;2023-07-20T08:27:48;19.20;99.90
2639;DHT22;1329;51.384;7.122;2023-07-20T08:30:15;19.20;99.90
2639;DHT22;1329;51.384;7.122;2023-07-20T08:32:42;19.10;99.90
2639;DHT22;1329;51.384;7.122;2023-07-20T08:35:09;19.20;99.90
2639;DHT22;1329;51.384;7.122;2023-07-20T08:37:36;19.20;99.90
2639;DHT22;1329;51.384;7.122;2023-07-20T08:40:03;19.20;99.90
2639;DHT22;1329;51.384;7.122;2023-07-20T08:42:35;19.30;99.90
2639;DHT22;1329;51.384;7.122;2023-07-20T08:45:06;19.40;99.90
2639;DHT22;1329;51.384;7.122;2023-07-20T08:47:35;19.40;99.90
2639;DHT22;1329;51.384;7.122;2023-07-20T08:50:02;19.50;99.90
2639;DHT22;1329;51.384;7.122;2023-07-20T08:52:34;19.60;99.90
2639;DHT22;1329;51.384;7.122;2023-07-20T08:55:01;19.60;99.90
2639;DHT22;1329;51.384;7.122;2023-07-20T08:57:30;19.70;99.90
2639;DHT22;1329;51.384;7.122;2023-07-20T09:00:02;19.70;99.90
2639;DHT22;1329;51.384;7.122;2023-07-20T09:02:35;19.80;99.90
2639;DHT22;1329;51.384;7.122;2023-07-20T09:05:05;19.80;99.90
2639;DHT22;1329;51.384;7.122;2023-07-20T09:07:33;19.80;99.90
2639;DHT22;1329;51.384;7.122;2023-07-20T09:10:02;19.80;99.90
2639;DHT22;1329;51.384;7.122;2023-07-20T09:12:31;19.80;99.90
2639;DHT22;1329;51.384;7.122;2023-07-20T09:14:59;19.80;99.90
2639;DHT22;1329;51.384;7.122;2023-07-20T09:17:27;20.00;99.90
2639;DHT22;1329;51.384;7.122;2023-07-20T09:19:54;20.10;99.90
2639;DHT22;1329;51.384;7.122;2023-07-20T09:22:21;20.30;99.90
2639;DHT22;1329;51.384;7.122;2023-07-20T09:24:48;20.30;99.90
2639;DHT22;1329;51.384;7.122;2023-07-20T09:27:15;20.40;99.90
2639;DHT22;1329;51.384;7.122;2023-07-20T09:29:49;20.50;99.90
2639;DHT22;1329;51.384;7.122;2023-07-20T09:32:20;20.70;99.90
2639;DHT22;1329;51.384;7.122;2023-07-20T09:34:50;20.80;99.90
2639;DHT22;1329;51.384;7.122;2023-07-20T09:37:20;21.00;99.90
2639;DHT22;1329;51.384;7.122;2023-07-20T09:39:48;21.30;99.90
2639;DHT22;1329;51.384;7.122;2023-07-20T09:42:18;21.60;99.90
2639;DHT22;1329;51.384;7.122;2023-07-20T09:44:47;22.00;99.90
2639;DHT22;1329;51.384;7.122;2023-07-20T09:47:23;22.30;99.90
2639;DHT22;1329;51.384;7.122;2023-07-20T09:49:58;22.50;99.90
2639;DHT22;1329;51.384;7.122;2023-07-20T09:52:28;22.60;99.90
2639;DHT22;1329;51.384;7.122;2023-07-20T09:54:56;22.70;99.90
2639;DHT22;1329;51.384;7.122;2023-07-20T09:57:25;22.70;99.90
2639;DHT22;1329;51.384;7.122;2023-07-20T09:59:52;22.60;99.90
2639;DHT22;1329;51.384;7.122;2023-07-20T10:02:21;22.60;99.90
2639;DHT22;1329;51.384;7.122;2023-07-20T10:04:53;22.60;99.90
2639;DHT22;1329;51.384;7.122;2023-07-20T10:07:22;22.50;99.30
2639;DHT22;1329;51.384;7.122;2023-07-20T10:09:53;22.50;96.10
2639;DHT22;1329;51.384;7.122;2023-07-20T10:12:21;22.40;95.40
2639;DHT22;1329;51.384;7.122;2023-07-20T10:14:54;22.30;82.10
2639;DHT22;1329;51.384;7.122;2023-07-20T10:17:34;22.20;68.30
2639;DHT22;1329;51.384;7.122;2023-07-20T10:20:04;22.10;70.80
2639;DHT22;1329;51.384;7.122;2023-07-20T10:22:36;21.90;70.50
2639;DHT22;1329;51.384;7.122;2023-07-20T10:25:04;21.90;67.40
2639;DHT22;1329;51.384;7.122;2023-07-20T10:27:32;21.80;75.40
2639;DHT22;1329;51.384;7.122;2023-07-20T10:29:59;21.80;81.90
2639;DHT22;1329;51.384;7.122;2023-07-20T10:32:29;21.80;81.30
2639;DHT22;1329;51.384;7.122;2023-07-20T10:34:58;21.80;76.50
2639;DHT22;1329;51.384;7.122;2023-07-20T10:37:47;21.80;67.20
2639;DHT22;1329;51.384;7.122;2023-07-20T10:40:27;21.80;41.80
2639;DHT22;1329;51.384;7.122;2023-07-20T10:42:59;21.80;58.20
2639;DHT22;1329;51.384;7.122;2023-07-20T10:45:39;21.70;57.80
2639;DHT22;1329;51.384;7.122;2023-07-20T10:48:13;21.70;50.90
2639;DHT22;1329;51.384;7.122;2023-07-20T10:50:43;21.70;52.00
2639;DHT22;1329;51.384;7.122;2023-07-20T10:53:11;21.80;68.70
2639;DHT22;1329;51.384;7.122;2023-07-20T10:55:39;21.80;73.50
2639;DHT22;1329;51.384;7.122;2023-07-20T10:58:09;21.90;68.80
2639;DHT22;1329;51.384;7.122;2023-07-20T11:00:37;21.90;59.90
2639;DHT22;1329;51.384;7.122;2023-07-20T11:03:05;22.00;60.90
2639;DHT22;1329;51.384;7.122;2023-07-20T11:05:36;22.00;57.50
2639;DHT22;1329;51.384;7.122;2023-07-20T11:08:10;22.10;43.40
2639;DHT22;1329;51.384;7.122;2023-07-20T11:10:37;22.10;35.80
2639;DHT22;1329;51.384;7.122;2023-07-20T11:13:32;22.10;48.70
2639;DHT22;1329;51.384;7.122;2023-07-20T11:16:04;22.10;15.10
2639;DHT22;1329;51.384;7.122;2023-07-20T11:18:34;22.10;24.80
2639;DHT22;1329;51.384;7.122;2023-07-20T11:21:08;22.00;32.80
2639;DHT22;1329;51.384;7.122;2023-07-20T11:23:39;22.00;38.50
2639;DHT22;1329;51.384;7.122;2023-07-20T11:26:05;22.10;37.00
2639;DHT22;1329;51.384;7.122;2023-07-20T11:28:34;22.20;53.20
2639;DHT22;1329;51.384;7.122;2023-07-20T11:31:01;22.30;45.20
2639;DHT22;1329;51.384;7.122;2023-07-20T11:33:28;22.40;47.50
2639;DHT22;1329;51.384;7.122;2023-07-20T11:35:55;22.50;42.30
2639;DHT22;1329;51.384;7.122;2023-07-20T11:38:23;22.60;28.40
2639;DHT22;1329;51.384;7.122;2023-07-20T11:40:52;22.70;18.20
2639;DHT22;1329;51.384;7.122;2023-07-20T11:43:19;22.80;21.80
2639;DHT22;1329;51.384;7.122;2023-07-20T11:45:49;22.90;24.30
2639;DHT22;1329;51.384;7.122;2023-07-20T11:48:17;23.00;21.60
2639;DHT22;1329;51.384;7.122;2023-07-20T11:50:44;23.10;21.00
2639;DHT22;1329;51.384;7.122;2023-07-20T11:53:13;23.20;24.10
2639;DHT22;1329;51.384;7.122;2023-07-20T11:55:41;23.30;19.80
2639;DHT22;1329;51.384;7.122;2023-07-20T11:58:09;23.40;17.40
2639;DHT22;1329;51.384;7.122;2023-07-20T12:00:38;23.50;7.20
2639;DHT22;1329;51.384;7.122;2023-07-20T12:03:06;23.50;1.00
2639;DHT22;1329;51.384;7.122;2023-07-20T12:05:33;23.60;1.00
2639;DHT22;1329;51.384;7.122;2023-07-20T12:08:00;23.50;1.00
2639;DHT22;1329;51.384;7.122;2023-07-20T12:10:28;23.50;1.00
2639;DHT22;1329;51.384;7.122;2023-07-20T12:13:01;23.40;1.00
2639;DHT22;1329;51.384;7.122;2023-07-20T12:15:30;23.50;1.00
2639;DHT22;1329;51.384;7.122;2023-07-20T12:17:58;23.60;1.00
2639;DHT22;1329;51.384;7.122;2023-07-20T12:20:28;23.60;1.00
2639;DHT22;1329;51.384;7.122;2023-07-20T12:22:59;23.60;1.00
2639;DHT22;1329;51.384;7.122;2023-07-20T12:25:36;23.60;1.00
2639;DHT22;1329;51.384;7.122;2023-07-20T12:28:05;23.70;1.00
2639;DHT22;1329;51.384;7.122;2023-07-20T12:30:35;23.70;1.00
2639;DHT22;1329;51.384;7.122;2023-07-20T12:33:03;23.70;1.00
2639;DHT22;1329;51.384;7.122;2023-07-20T12:35:30;23.70;1.00
2639;DHT22;1329;51.384;7.122;2023-07-20T12:37:58;23.70;1.00
2639;DHT22;1329;51.384;7.122;2023-07-20T12:40:25;23.80;1.00
2639;DHT22;1329;51.384;7.122;2023-07-20T12:42:52;23.90;1.00
2639;DHT22;1329;51.384;7.122;2023-07-20T12:45:19;23.90;1.00
2639;DHT22;1329;51.384;7.122;2023-07-20T12:47:48;24.00;1.00
2639;DHT22;1329;51.384;7.122;2023-07-20T12:50:15;24.10;1.00
2639;DHT22;1329;51.384;7.122;2023-07-20T12:52:42;24.20;1.00
2639;DHT22;1329;51.384;7.122;2023-07-20T12:55:09;24.30;1.00
2639;DHT22;1329;51.384;7.122;2023-07-20T12:57:37;24.30;1.00
2639;DHT22;1329;51.384;7.122;2023-07-20T13:00:06;24.40;1.00
2639;DHT22;1329;51.384;7.122;2023-07-20T13:02:35;24.40;1.00
2639;DHT22;1329;51.384;7.122;2023-07-20T13:05:04;24.40;1.00
2639;DHT22;1329;51.384;7.122;2023-07-20T13:07:32;24.40;1.00
2639;DHT22;1329;51.384;7.122;2023-07-20T13:10:00;24.30;1.00
2639;DHT22;1329;51.384;7.122;2023-07-20T13:12:28;24.20;1.00
2639;DHT22;1329;51.384;7.122;2023-07-20T13:14:57;24.10;1.00
2639;DHT22;1329;51.384;7.122;2023-07-20T13:17:26;24.00;1.00
2639;DHT22;1329;51.384;7.122;2023-07-20T13:19:53;23.90;1.00
2639;DHT22;1329;51.384;7.122;2023-07-20T13:22:22;23.70;1.00
2639;DHT22;1329;51.384;7.122;2023-07-20T13:24:49;23.60;1.00
2639;DHT22;1329;51.384;7.122;2023-07-20T13:27:17;23.50;1.00
2639;DHT22;1329;51.384;7.122;2023-07-20T13:29:45;23.40;1.00
2639;DHT22;1329;51.384;7.122;2023-07-20T13:32:13;23.40;1.00
2639;DHT22;1329;51.384;7.122;2023-07-20T13:34:41;23.30;1.00
2639;DHT22;1329;51.384;7.122;2023-07-20T13:37:08;23.30;1.00
2639;DHT22;1329;51.384;7.122;2023-07-20T13:39:37;23.20;1.00
2639;DHT22;1329;51.384;7.122;2023-07-20T13:42:05;23.20;1.00
2639;DHT22;1329;51.384;7.122;2023-07-20T13:44:34;23.10;1.00
2639;DHT22;1329;51.384;7.122;2023-07-20T13:47:01;23.10;1.00
2639;DHT22;1329;51.384;7.122;2023-07-20T13:49:31;23.10;1.00
2639;DHT22;1329;51.384;7.122;2023-07-20T13:51:58;23.10;1.00
2639;DHT22;1329;51.384;7.122;2023-07-20T13:54:25;23.20;1.00
2639;DHT22;1329;51.384;7.122;2023-07-20T13:56:55;23.30;1.00
2639;DHT22;1329;51.384;7.122;2023-07-20T13:59:23;23.30;1.00
2639;DHT22;1329;51.384;7.122;2023-07-20T14:01:50;23.40;1.00
2639;DHT22;1329;51.384;7.122;2023-07-20T14:04:18;23.40;1.00
2639;DHT22;1329;51.384;7.122;2023-07-20T14:06:45;23.50;1.00
2639;DHT22;1329;51.384;7.122;2023-07-20T14:09:12;23.50;1.00
2639;DHT22;1329;51.384;7.122;2023-07-20T14:11:39;23.60;1.00
2639;DHT22;1329;51.384;7.122;2023-07-20T14:14:08;23.60;1.00
2639;DHT22;1329;51.384;7.122;2023-07-20T14:16:35;23.60;1.00
2639;DHT22;1329;51.384;7.122;2023-07-20T14:19:04;23.70;1.00
2639;DHT22;1329;51.384;7.122;2023-07-20T14:21:31;23.70;1.00
2639;DHT22;1329;51.384;7.122;2023-07-20T14:23:58;23.70;1.00
2639;DHT22;1329;51.384;7.122;2023-07-20T14:26:25;23.80;1.00
2639;DHT22;1329;51.384;7.122;2023-07-20T14:28:52;23.90;1.00
2639;DHT22;1329;51.384;7.122;2023-07-20T14:31:21;24.00;1.00
2639;DHT22;1329;51.384;7.122;2023-07-20T14:33:48;24.00;1.00
2639;DHT22;1329;51.384;7.122;2023-07-20T14:36:15;24.10;1.00
2639;DHT22;1329;51.384;7.122;2023-07-20T14:38:43;24.20;1.00
2639;DHT22;1329;51.384;7.122;2023-07-20T14:41:10;24.20;1.00
2639;DHT22;1329;51.384;7.122;2023-07-20T14:43:37;24.30;1.00
2639;DHT22;1329;51.384;7.122;2023-07-20T14:46:05;24.30;1.00
2639;DHT22;1329;51.384;7.122;2023-07-20T14:48:33;24.30;1.00
2639;DHT22;1329;51.384;7.122;2023-07-20T14:51:00;24.40;1.00
2639;DHT22;1329;51.384;7.122;2023-07-20T14:53:27;24.40;1.00
2639;DHT22;1329;51.384;7.122;2023-07-20T14:55:59;24.40;1.00
2639;DHT22;1329;51.384;7.122;2023-07-20T14:58:27;24.40;1.00
2639;DHT22;1329;51.384;7.122;2023-07-20T15:00:54;24.40;1.00
2639;DHT22;1329;51.384;7.122;2023-07-20T15:03:21;24.40;1.00
2639;DHT22;1329;51.384;7.122;2023-07-20T15:05:49;24.50;1.00
2639;DHT22;1329;51.384;7.122;2023-07-20T15:08:16;24.50;1.00
2639;DHT22;1329;51.384;7.122;2023-07-20T15:10:44;24.50;1.00
2639;DHT22;1329;51.384;7.122;2023-07-20T15:13:12;24.50;1.00
2639;DHT22;1329;51.384;7.122;2023-07-20T15:15:39;24.60;1.00
2639;DHT22;1329;51.384;7.122;2023-07-20T15:18:06;24.60;1.00
2639;DHT22;1329;51.384;7.122;2023-07-20T15:20:33;24.70;1.00
2639;DHT22;1329;51.384;7.122;2023-07-20T15:23:02;24.90;1.00
2639;DHT22;1329;51.384;7.122;2023-07-20T15:25:29;25.10;1.00
2639;DHT22;1329;51.384;7.122;2023-07-20T15:27:56;25.30;1.00
2639;DHT22;1329;51.384;7.122;2023-07-20T15:30:23;25.40;1.00
2639;DHT22;1329;51.384;7.122;2023-07-20T15:32:50;25.60;1.00
2639;DHT22;1329;51.384;7.122;2023-07-20T15:35:17;25.60;1.00
2639;DHT22;1329;51.384;7.122;2023-07-20T15:37:44;25.70;1.00
2639;DHT22;1329;51.384;7.122;2023-07-20T15:40:13;25.80;1.00
2639;DHT22;1329;51.384;7.122;2023-07-20T15:42:40;25.80;1.00
2639;DHT22;1329;51.384;7.122;2023-07-20T15:45:08;25.90;1.00
2639;DHT22;1329;51.384;7.122;2023-07-20T15:47:36;25.90;1.00
2639;DHT22;1329;51.384;7.122;2023-07-20T15:50:03;25.90;1.00
2639;DHT22;1329;51.384;7.122;2023-07-20T15:52:30;25.80;1.00
2639;DHT22;1329;51.384;7.122;2023-07-20T15:54:57;25.70;1.00
2639;DHT22;1329;51.384;7.122;2023-07-20T15:57:26;25.60;1.00
2639;DHT22;1329;51.384;7.122;2023-07-20T15:59:53;25.60;1.00
2639;DHT22;1329;51.384;7.122;2023-07-20T16:02:20;25.50;1.00
2639;DHT22;1329;51.384;7.122;2023-07-20T16:04:47;25.50;1.00
2639;DHT22;1329;51.384;7.122;2023-07-20T16:07:14;25.50;1.00
2639;DHT22;1329;51.384;7.122;2023-07-20T16:09:41;25.50;1.00
2639;DHT22;1329;51.384;7.122;2023-07-20T16:12:08;25.60;1.00
2639;DHT22;1329;51.384;7.122;2023-07-20T16:14:38;25.70;1.00